Time;durP1;ratioP1;P1;durP2;ratioP2;P2;SDS_P1;SDS_P2;PMS_P1;PMS_P2;Temp;Humidity;BMP_temperature;BMP_pressure;BME280_temperature;BME280_humidity;BME280_pressure;Samples;Min_cycle;Max_cycle;Signal;HPM_P1;HPM_P2
2022/10/17 00:00:34;;;;;;;9.52;4.75;;;16.90;99.90;;;;;;5053889;28;20132;-63
2022/10/17 00:03:01;;;;;;;9.70;4.88;;;16.90;99.90;;;;;;5052411;28;20048;-65
2022/10/17 00:05:28;;;;;;;7.82;4.15;;;16.90;99.90;;;;;;5054455;28;20049;-63
2022/10/17 00:07:55;;;;;;;7.65;5.20;;;16.90;99.90;;;;;;5052477;28;20045;-63
2022/10/17 00:10:22;;;;;;;7.53;5.03;;;16.90;99.90;;;;;;5035237;28;20045;-63
2022/10/17 00:12:50;;;;;;;15.88;4.28;;;16.90;99.90;;;;;;5036192;28;20044;-63
2022/10/17 00:15:18;;;;;;;10.32;4.88;;;16.90;99.90;;;;;;5053615;28;20091;-63
2022/10/17 00:17:45;;;;;;;8.68;4.28;;;16.90;99.90;;;;;;5036125;28;20052;-63
2022/10/17 00:20:12;;;;;;;8.63;4.07;;;16.90;99.90;;;;;;5053480;28;20483;-63
2022/10/17 00:22:39;;;;;;;12.02;4.70;;;16.90;99.90;;;;;;5053057;28;20045;-63
2022/10/17 00:25:06;;;;;;;9.90;4.60;;;16.90;99.90;;;;;;5052010;28;20044;-63
2022/10/17 00:27:37;;;;;;;7.70;4.47;;;16.80;99.90;;;;;;5035930;28;20094;-63
2022/10/17 00:30:05;;;;;;;10.93;4.80;;;16.80;99.90;;;;;;5053850;28;20415;-63
2022/10/17 00:32:32;;;;;;;10.95;4.60;;;16.80;99.90;;;;;;5051767;28;20041;-63
2022/10/17 00:34:59;;;;;;;8.00;4.13;;;16.80;99.90;;;;;;5035792;28;20346;-63
2022/10/17 00:37:26;;;;;;;7.05;3.92;;;16.80;99.90;;;;;;5052614;28;20197;-64
2022/10/17 00:39:53;;;;;;;11.68;4.00;;;16.80;99.90;;;;;;5052673;28;20419;-63
2022/10/17 00:42:20;;;;;;;11.13;4.28;;;16.80;99.90;;;;;;5054178;28;20381;-63
2022/10/17 00:44:46;;;;;;;11.25;5.38;;;16.80;99.90;;;;;;5051761;28;20186;-63
2022/10/17 00:47:18;;;;;;;7.80;3.92;;;16.80;99.90;;;;;;5053038;28;20041;-63
2022/10/17 00:49:45;;;;;;;7.40;3.92;;;16.70;99.90;;;;;;5052965;28;20492;-63
2022/10/17 00:52:21;;;;;;;8.75;3.60;;;16.70;99.90;;;;;;5051713;28;20055;-63
2022/10/17 00:54:50;;;;;;;7.72;3.72;;;16.70;99.90;;;;;;5036073;28;20084;-63
2022/10/17 00:57:17;;;;;;;6.95;3.58;;;16.80;99.90;;;;;;5035179;28;20527;-63
2022/10/17 00:59:47;;;;;;;10.50;4.25;;;16.70;99.90;;;;;;5052461;28;20095;-63
2022/10/17 01:02:16;;;;;;;6.90;3.88;;;16.70;99.90;;;;;;5052472;28;20369;-63
2022/10/17 01:04:43;;;;;;;8.15;3.45;;;16.70;99.90;;;;;;5051959;28;20040;-63
2022/10/17 01:07:10;;;;;;;6.57;3.13;;;16.70;99.90;;;;;;5051669;28;20473;-63
2022/10/17 01:09:38;;;;;;;7.82;3.40;;;16.70;99.90;;;;;;5052705;28;20083;-64
2022/10/17 01:12:17;;;;;;;11.55;4.82;;;16.70;99.90;;;;;;5052209;28;20037;-63
2022/10/17 01:14:56;;;;;;;9.77;3.40;;;16.70;99.90;;;;;;5052603;28;20041;-63
2022/10/17 01:17:51;;;;;;;11.10;3.97;;;16.60;99.90;;;;;;5053766;28;20381;-63
2022/10/17 01:20:55;;;;;;;8.30;4.20;;;16.60;99.90;;;;;;5053016;28;20063;-63
2022/10/17 01:23:51;;;;;;;10.88;2.95;;;16.60;99.90;;;;;;5057273;28;20075;-63
2022/10/17 01:26:51;;;;;;;5.28;3.45;;;16.60;99.90;;;;;;5046382;28;20469;-63
2022/10/17 01:29:45;;;;;;;6.00;3.25;;;16.60;99.90;;;;;;5056606;28;20079;-63
2022/10/17 01:32:23;;;;;;;10.27;3.55;;;16.50;99.90;;;;;;5056359;28;20173;-63
2022/10/17 01:34:54;;;;;;;7.40;3.28;;;16.50;99.90;;;;;;5056242;28;20045;-64
2022/10/17 01:37:29;;;;;;;8.23;2.78;;;16.40;99.90;;;;;;5056216;28;20095;-63
2022/10/17 01:40:02;;;;;;;10.73;3.90;;;16.40;99.90;;;;;;5039420;28;20049;-64
2022/10/17 01:42:48;;;;;;;6.70;2.80;;;16.40;99.90;;;;;;5056109;28;20095;-63
2022/10/17 01:45:25;;;;;;;9.95;4.55;;;16.30;99.90;;;;;;5055901;28;20045;-63
2022/10/17 01:47:52;;;;;;;13.13;3.72;;;16.30;99.90;;;;;;5037845;28;20052;-63
2022/10/17 01:50:27;;;;;;;7.45;3.10;;;16.20;99.90;;;;;;5054684;28;20420;-64
2022/10/17 01:52:56;;;;;;;10.10;4.05;;;16.30;99.90;;;;;;5054230;28;20119;-63
2022/10/17 01:55:30;;;;;;;10.30;3.05;;;16.30;99.90;;;;;;5054304;28;20102;-63
2022/10/17 01:58:04;;;;;;;11.15;3.08;;;16.30;99.90;;;;;;5054192;28;20515;-62
2022/10/17 02:00:31;;;;;;;10.70;3.20;;;16.30;99.90;;;;;;5054917;28;20107;-62
2022/10/17 02:03:00;;;;;;;8.93;3.03;;;16.30;99.90;;;;;;5055065;28;20049;-62
2022/10/17 02:05:30;;;;;;;12.40;3.03;;;16.40;99.90;;;;;;5055096;28;20044;-64
2022/10/17 02:07:57;;;;;;;9.90;3.20;;;16.40;99.90;;;;;;5054102;28;20114;-62
2022/10/17 02:10:51;;;;;;;6.28;3.30;;;16.40;99.90;;;;;;5037419;28;20463;-64
2022/10/17 02:13:21;;;;;;;5.55;2.90;;;16.50;99.90;;;;;;5054064;28;20044;-63
2022/10/17 02:16:25;;;;;;;9.77;3.05;;;16.50;99.90;;;;;;5055310;28;20041;-63
2022/10/17 02:19:14;;;;;;;7.88;3.25;;;16.50;99.90;;;;;;5055419;28;20118;-62
2022/10/17 02:22:02;;;;;;;7.15;2.95;;;16.50;99.90;;;;;;5037130;28;20435;-62
2022/10/17 02:24:35;;;;;;;7.03;2.53;;;16.50;99.90;;;;;;5055006;28;20037;-63
2022/10/17 02:27:22;;;;;;;9.82;3.38;;;16.40;99.90;;;;;;5054532;28;20106;-63
2022/10/17 02:30:01;;;;;;;10.30;2.72;;;16.40;99.90;;;;;;5037785;28;20122;-63
2022/10/17 02:32:40;;;;;;;;;;;16.50;99.90;;;;;;5054360;28;20040;-63
2022/10/17 02:35:13;;;;;;;10.85;2.92;;;16.40;99.90;;;;;;5054780;28;19916;-63
2022/10/17 02:37:41;;;;;;;9.52;3.30;;;16.40;99.90;;;;;;5037651;28;20119;-63
2022/10/17 02:40:08;;;;;;;8.02;3.22;;;16.40;99.90;;;;;;5054067;28;20048;-63
2022/10/17 02:42:35;;;;;;;7.45;2.63;;;16.50;99.90;;;;;;5054141;28;20052;-63
2022/10/17 02:45:02;;;;;;;8.13;2.88;;;16.50;99.90;;;;;;5053344;28;20477;-63
2022/10/17 02:47:35;;;;;;;5.93;2.63;;;16.40;99.90;;;;;;5053237;28;20411;-63
2022/10/17 02:50:03;;;;;;;16.63;3.63;;;16.40;99.90;;;;;;5036782;28;20095;-63
2022/10/17 02:52:36;;;;;;;9.95;3.20;;;16.40;99.90;;;;;;5053470;28;20057;-63
2022/10/17 02:55:14;;;;;;;9.15;3.85;;;16.40;99.90;;;;;;5053204;28;20045;-63
2022/10/17 02:57:44;;;;;;;6.80;2.95;;;16.40;99.90;;;;;;5038509;28;20128;-63
2022/10/17 03:00:12;;;;;;;6.85;2.60;;;16.40;99.90;;;;;;5054028;28;20037;-63
2022/10/17 03:02:44;;;;;;;4.80;2.78;;;16.40;99.90;;;;;;5053496;28;20041;-63
2022/10/17 03:05:12;;;;;;;9.82;2.80;;;16.40;99.90;;;;;;5053425;28;20045;-63
2022/10/17 03:07:39;;;;;;;8.15;2.47;;;16.40;99.90;;;;;;5053459;28;20454;-63
2022/10/17 03:10:06;;;;;;;11.55;3.00;;;16.40;99.90;;;;;;5053331;28;20489;-63
2022/10/17 03:12:33;;;;;;;7.47;2.83;;;16.40;99.90;;;;;;5053510;28;20044;-63
2022/10/17 03:15:00;;;;;;;12.25;3.55;;;16.40;99.90;;;;;;5054575;28;20071;-63
2022/10/17 03:17:27;;;;;;;11.20;3.13;;;16.40;99.90;;;;;;5053959;28;20048;-63
2022/10/17 03:19:54;;;;;;;7.97;2.70;;;16.30;99.90;;;;;;5053336;28;20098;-64
2022/10/17 03:22:21;;;;;;;8.68;2.30;;;16.30;99.90;;;;;;5054970;28;20424;-63
2022/10/17 03:24:47;;;;;;;8.40;2.88;;;16.30;99.90;;;;;;5053694;28;20044;-63
2022/10/17 03:27:14;;;;;;;4.85;2.40;;;16.30;99.90;;;;;;5052500;28;20106;-63
2022/10/17 03:29:41;;;;;;;6.80;2.85;;;16.30;99.90;;;;;;5053105;28;20044;-63
2022/10/17 03:32:08;;;;;;;7.35;3.03;;;16.30;99.90;;;;;;5052602;28;20350;-63
2022/10/17 03:34:35;;;;;;;9.20;2.67;;;16.30;99.90;;;;;;5053987;28;20044;-63
2022/10/17 03:37:02;;;;;;;7.28;2.60;;;16.30;99.90;;;;;;5054507;28;20037;-63
2022/10/17 03:39:29;;;;;;;8.00;2.65;;;16.20;99.90;;;;;;5052478;28;20041;-62
2022/10/17 03:41:56;;;;;;;9.57;3.10;;;16.20;99.90;;;;;;5052079;28;20542;-64
2022/10/17 03:44:22;;;;;;;6.93;2.63;;;16.20;99.90;;;;;;5051202;28;20095;-63
2022/10/17 03:46:49;;;;;;;11.00;2.55;;;16.20;99.90;;;;;;5051982;28;20048;-63
2022/10/17 03:49:16;;;;;;;7.90;2.58;;;16.20;99.90;;;;;;5052014;28;20106;-63
2022/10/17 03:51:43;;;;;;;5.40;3.03;;;16.20;99.90;;;;;;5053065;28;20084;-63
2022/10/17 03:54:10;;;;;;;9.25;2.80;;;16.20;99.90;;;;;;5051889;28;20049;-62
2022/10/17 03:56:37;;;;;;;9.90;3.10;;;16.20;99.90;;;;;;5053085;28;20468;-63
2022/10/17 03:59:04;;;;;;;7.00;2.92;;;16.20;99.90;;;;;;5035717;28;20147;-64
2022/10/17 04:01:30;;;;;;;12.50;4.03;;;16.20;99.90;;;;;;5052641;28;20045;-63
2022/10/17 04:03:57;;;;;;;6.22;2.80;;;16.20;99.90;;;;;;5052908;28;20114;-63
2022/10/17 04:06:24;;;;;;;9.32;3.50;;;16.20;99.90;;;;;;5052384;28;20075;-63
2022/10/17 04:08:51;;;;;;;11.45;3.50;;;16.20;99.90;;;;;;5053134;28;20465;-63
2022/10/17 04:11:19;;;;;;;12.43;2.92;;;16.30;99.90;;;;;;5053086;28;20118;-63
2022/10/17 04:13:45;;;;;;;14.18;3.92;;;16.30;99.90;;;;;;5051499;28;20040;-63
2022/10/17 04:16:14;;;;;;;6.68;3.95;;;16.30;99.90;;;;;;5051525;28;20480;-63
2022/10/17 04:18:41;;;;;;;6.40;3.03;;;16.30;99.90;;;;;;5053636;28;20103;-63
2022/10/17 04:21:09;;;;;;;8.98;3.55;;;16.30;99.90;;;;;;5052761;28;20053;-63
2022/10/17 04:23:37;;;;;;;11.02;3.70;;;16.30;99.90;;;;;;5051887;28;20067;-63
2022/10/17 04:26:04;;;;;;;8.57;3.25;;;16.30;99.90;;;;;;5053028;28;20079;-63
2022/10/17 04:28:31;;;;;;;11.18;3.08;;;16.30;99.90;;;;;;5052882;28;20195;-63
2022/10/17 04:30:59;;;;;;;7.50;2.53;;;16.30;99.90;;;;;;5035224;28;20386;-63
2022/10/17 04:33:26;;;;;;;8.15;2.50;;;16.30;99.90;;;;;;5052193;28;20091;-63
2022/10/17 04:35:56;;;;;;;9.93;3.78;;;16.30;99.90;;;;;;5051918;28;20065;-63
2022/10/17 04:38:23;;;;;;;10.27;3.38;;;16.30;99.90;;;;;;5052750;28;20392;-63
2022/10/17 04:40:56;;;;;;;11.73;3.55;;;16.30;99.90;;;;;;5051959;28;20091;-63
2022/10/17 04:43:23;;;;;;;10.57;3.35;;;16.30;99.90;;;;;;5051411;28;20048;-63
2022/10/17 04:45:50;;;;;;;13.32;4.60;;;16.30;99.90;;;;;;5051149;28;20472;-63
2022/10/17 04:48:17;;;;;;;9.27;2.88;;;16.30;99.90;;;;;;5052346;28;20091;-63
2022/10/17 04:51:00;;;;;;;8.05;2.80;;;16.30;99.90;;;;;;5051760;28;20045;-63
2022/10/17 04:53:27;;;;;;;9.15;3.42;;;16.30;99.90;;;;;;5051877;28;20075;-63
2022/10/17 04:55:54;;;;;;;12.73;4.07;;;16.30;99.90;;;;;;5052254;28;20045;-63
2022/10/17 04:58:21;;;;;;;13.93;2.55;;;16.30;99.90;;;;;;5056653;28;20036;-63
2022/10/17 05:00:48;;;;;;;13.55;3.08;;;16.30;99.90;;;;;;5056991;28;20041;-63
2022/10/17 05:03:15;;;;;;;8.27;3.25;;;16.30;99.90;;;;;;5055303;28;20049;-63
2022/10/17 05:05:42;;;;;;;10.48;4.32;;;16.30;99.90;;;;;;5039526;28;20052;-63
2022/10/17 05:08:09;;;;;;;10.23;3.55;;;16.30;99.90;;;;;;5056893;28;20439;-63
2022/10/17 05:10:44;;;;;;;11.20;3.17;;;16.20;99.90;;;;;;5055310;28;20127;-63
2022/10/17 05:13:12;;;;;;;10.00;3.05;;;16.20;99.90;;;;;;5055036;28;20080;-63
2022/10/17 05:15:38;;;;;;;12.93;2.88;;;16.20;99.90;;;;;;5055181;28;20110;-63
2022/10/17 05:18:05;;;;;;;9.68;2.92;;;16.20;99.90;;;;;;5056299;28;20091;-63
2022/10/17 05:20:33;;;;;;;13.60;3.28;;;16.10;99.90;;;;;;5055068;28;20064;-63
2022/10/17 05:23:00;;;;;;;12.02;3.10;;;16.20;99.90;;;;;;5056212;28;20489;-63
2022/10/17 05:25:27;;;;;;;9.73;2.70;;;16.10;99.90;;;;;;5038593;28;20080;-63
2022/10/17 05:27:54;;;;;;;8.68;3.28;;;16.10;99.90;;;;;;5038707;28;20049;-63
2022/10/17 05:30:21;;;;;;;10.07;3.35;;;16.00;99.90;;;;;;5038231;28;20041;-63
2022/10/17 05:32:53;;;;;;;9.23;2.78;;;16.00;99.90;;;;;;5054873;28;20045;-63
2022/10/17 05:35:20;;;;;;;12.48;4.25;;;16.00;99.90;;;;;;5055963;28;20048;-63
2022/10/17 05:37:47;;;;;;;13.52;3.95;;;16.00;99.90;;;;;;5038368;28;20473;-63
2022/10/17 05:40:14;;;;;;;9.90;3.78;;;16.00;99.90;;;;;;5054936;28;20037;-63
2022/10/17 05:42:47;;;;;;;12.02;3.83;;;15.90;99.90;;;;;;5038415;28;20041;-63
2022/10/17 05:45:14;;;;;;;9.57;3.10;;;15.90;99.90;;;;;;5056434;28;20045;-63
2022/10/17 05:47:41;;;;;;;11.23;3.35;;;15.90;99.90;;;;;;5054513;28;20522;-63
2022/10/17 05:50:08;;;;;;;14.82;4.00;;;15.90;99.90;;;;;;5054436;28;20109;-63
2022/10/17 05:52:35;;;;;;;12.40;3.53;;;15.90;99.90;;;;;;5055290;28;20041;-63
2022/10/17 05:55:03;;;;;;;12.82;3.50;;;15.80;99.90;;;;;;5038076;28;20056;-62
2022/10/17 05:57:30;;;;;;;12.25;3.60;;;15.90;99.90;;;;;;5055519;28;20124;-62
2022/10/17 05:59:57;;;;;;;10.20;3.35;;;15.90;99.90;;;;;;5054251;28;20049;-62
2022/10/17 06:02:24;;;;;;;12.80;4.18;;;15.90;99.90;;;;;;5054275;28;20045;-62
2022/10/17 06:04:51;;;;;;;10.82;2.92;;;15.90;99.90;;;;;;5054344;28;20358;-62
2022/10/17 06:07:18;;;;;;;8.90;3.05;;;15.80;99.90;;;;;;5053627;28;20045;-62
2022/10/17 06:09:45;;;;;;;10.27;3.35;;;15.90;99.90;;;;;;5038724;28;20052;-63
2022/10/17 06:12:17;;;;;;;10.82;3.33;;;15.90;99.90;;;;;;5038426;28;20040;-62
2022/10/17 06:14:44;;;;;;;9.90;3.80;;;15.90;99.90;;;;;;5056022;28;20131;-63
2022/10/17 06:17:10;;;;;;;81.30;63.55;;;15.80;99.90;;;;;;5054412;28;20451;-64
2022/10/17 06:19:43;;;;;;;32.50;22.30;;;15.90;99.90;;;;;;5070043;28;20040;-65
2022/10/17 06:22:10;;;;;;;17.17;7.88;;;15.90;99.90;;;;;;5038234;28;20042;-63
2022/10/17 06:24:37;;;;;;;13.35;5.30;;;15.90;99.90;;;;;;5054641;28;20473;-62
2022/10/17 06:27:04;;;;;;;7.25;3.85;;;15.90;99.90;;;;;;5054706;28;20493;-62
2022/10/17 06:29:37;;;;;;;11.73;3.42;;;15.90;99.90;;;;;;5039509;28;20049;-61
2022/10/17 06:32:05;;;;;;;8.15;3.13;;;15.80;99.90;;;;;;5056544;28;20399;-62
2022/10/17 06:34:36;;;;;;;7.10;2.78;;;15.90;99.90;;;;;;5038769;28;20048;-64
2022/10/17 06:37:03;;;;;;;20.10;11.07;;;15.80;99.90;;;;;;5055750;28;20075;-63
2022/10/17 06:39:32;;;;;;;47.53;37.67;;;15.80;99.90;;;;;;5037976;28;20052;-61
2022/10/17 06:42:00;;;;;;;70.95;55.75;;;15.80;99.90;;;;;;5054101;28;20045;-64
2022/10/17 06:44:30;;;;;;;9.85;5.57;;;15.80;99.90;;;;;;5053848;28;20049;-62
2022/10/17 06:47:00;;;;;;;9.77;3.78;;;15.80;99.90;;;;;;5055052;28;20492;-63
2022/10/17 06:49:27;;;;;;;10.02;2.70;;;15.70;99.90;;;;;;5037549;28;20095;-62
2022/10/17 06:51:54;;;;;;;6.85;3.22;;;15.70;99.90;;;;;;5037249;28;20095;-61
2022/10/17 06:54:21;;;;;;;5.53;1.92;;;15.80;99.90;;;;;;5054017;28;20118;-62
2022/10/17 06:56:48;;;;;;;7.18;2.05;;;15.70;99.90;;;;;;5053806;28;20430;-62
2022/10/17 06:59:15;;;;;;;8.80;2.80;;;15.70;99.90;;;;;;5055652;28;20049;-62
2022/10/17 07:01:41;;;;;;;6.63;2.83;;;15.70;99.90;;;;;;5054764;28;20041;-61
2022/10/17 07:04:13;;;;;;;9.55;3.35;;;15.60;99.90;;;;;;5038672;28;20049;-62
2022/10/17 07:06:39;;;;;;;10.93;7.40;;;15.60;99.90;;;;;;5053560;28;20106;-62
2022/10/17 07:09:06;;;;;;;11.05;6.18;;;15.60;99.90;;;;;;5053216;28;20535;-62
2022/10/17 07:11:36;;;;;;;10.50;3.80;;;15.60;99.90;;;;;;5054004;28;20040;-64
2022/10/17 07:14:03;;;;;;;6.68;1.98;;;15.50;99.90;;;;;;5038028;28;20099;-64
2022/10/17 07:16:30;;;;;;;6.57;2.05;;;15.50;99.90;;;;;;5055153;28;20045;-64
2022/10/17 07:18:57;;;;;;;5.45;2.28;;;15.50;99.90;;;;;;5054653;28;20040;-64
2022/10/17 07:21:24;;;;;;;8.15;1.85;;;15.50;99.90;;;;;;5055378;28;20040;-65
2022/10/17 07:23:51;;;;;;;4.50;2.33;;;15.50;99.90;;;;;;5053277;28;20052;-62
2022/10/17 07:26:18;;;;;;;6.80;2.47;;;15.40;99.90;;;;;;5037446;28;20131;-62
2022/10/17 07:28:46;;;;;;;6.25;2.20;;;15.50;99.90;;;;;;5052792;28;20481;-63
2022/10/17 07:31:16;;;;;;;6.85;2.20;;;15.50;99.90;;;;;;5053134;28;20076;-63
2022/10/17 07:33:43;;;;;;;5.03;2.13;;;15.40;99.90;;;;;;5037435;28;20091;-64
2022/10/17 07:36:15;;;;;;;8.68;2.67;;;15.40;99.90;;;;;;5054752;28;20076;-65
2022/10/17 07:38:42;;;;;;;10.93;2.20;;;15.40;99.90;;;;;;5053280;28;20476;-63
2022/10/17 07:41:10;;;;;;;36.33;28.83;;;15.40;99.90;;;;;;5053457;28;20384;-63
2022/10/17 07:43:37;;;;;;;699.47;571.83;;;15.40;99.90;;;;;;5052845;28;20119;-63
2022/10/17 07:46:05;;;;;;;86.20;77.43;;;15.40;99.90;;;;;;5052600;28;20473;-62
2022/10/17 07:48:32;;;;;;;32.75;27.95;;;15.40;99.90;;;;;;5036921;28;20060;-64
2022/10/17 07:51:03;;;;;;;12.35;9.73;;;15.40;99.90;;;;;;5052494;28;20114;-63
2022/10/17 07:53:30;;;;;;;9.18;4.05;;;15.40;99.90;;;;;;5053093;28;20381;-65
2022/10/17 07:55:57;;;;;;;14.00;3.83;;;15.40;99.90;;;;;;5054142;28;20047;-67
2022/10/17 07:58:24;;;;;;;8.80;3.00;;;15.50;99.90;;;;;;5053665;28;20354;-62
2022/10/17 08:00:51;;;;;;;8.98;2.63;;;15.50;99.90;;;;;;5052827;28;20041;-63
2022/10/17 08:03:18;;;;;;;6.10;2.30;;;15.50;99.90;;;;;;5054263;28;20087;-62
2022/10/17 08:05:45;;;;;;;7.72;2.38;;;15.50;99.90;;;;;;5051991;28;20535;-64
2022/10/17 08:08:12;;;;;;;9.43;2.17;;;15.50;99.90;;;;;;5051340;28;20103;-64
2022/10/17 08:10:39;;;;;;;5.35;1.85;;;15.60;99.90;;;;;;5035904;28;20049;-63
2022/10/17 08:13:06;;;;;;;4.88;1.58;;;15.50;99.90;;;;;;5053465;28;20044;-64
2022/10/17 08:15:33;;;;;;;6.28;1.63;;;15.60;99.90;;;;;;5053384;28;20059;-62
2022/10/17 08:18:00;;;;;;;5.00;1.83;;;15.60;99.90;;;;;;5052308;28;20040;-62
2022/10/17 08:20:27;;;;;;;11.55;2.65;;;15.60;99.90;;;;;;5052878;28;20052;-62
2022/10/17 08:22:54;;;;;;;4.70;1.77;;;15.60;99.90;;;;;;5035456;28;20311;-63
2022/10/17 08:25:21;;;;;;;5.22;1.92;;;15.60;99.90;;;;;;5052524;28;20049;-63
2022/10/17 08:27:48;;;;;;;5.75;1.88;;;15.60;99.90;;;;;;5052242;28;20130;-66
2022/10/17 08:30:15;;;;;;;6.00;2.42;;;15.70;99.90;;;;;;5052185;28;20365;-62
2022/10/17 08:32:42;;;;;;;6.88;2.50;;;15.70;99.90;;;;;;5052827;28;20079;-66
2022/10/17 08:35:09;;;;;;;7.10;2.53;;;15.70;99.90;;;;;;5052829;28;20075;-64
2022/10/17 08:37:36;;;;;;;130.95;111.70;;;15.70;99.90;;;;;;5052509;28;20040;-67
2022/10/17 08:40:03;;;;;;;36.63;26.58;;;15.80;99.90;;;;;;5052825;28;20040;-67
2022/10/17 08:42:39;;;;;;;9.02;4.72;;;15.80;99.90;;;;;;5068542;28;20044;-68
2022/10/17 08:45:06;;;;;;;8.15;2.90;;;15.80;99.90;;;;;;5052048;28;20424;-67
2022/10/17 08:47:50;;;;;;;8.85;2.97;;;15.90;99.90;;;;;;5051572;28;20040;-66
2022/10/17 08:50:34;;;;;;;10.20;3.22;;;16.00;99.90;;;;;;5035226;28;20049;-67
2022/10/17 08:53:15;;;;;;;8.57;3.53;;;16.00;99.90;;;;;;5052347;28;20110;-66
2022/10/17 08:55:47;;;;;;;8.38;2.38;;;16.00;99.90;;;;;;5051434;28;20041;-67
2022/10/17 08:58:15;;;;;;;10.40;2.22;;;16.10;99.90;;;;;;5051362;28;20045;-68
2022/10/17 09:00:47;;;;;;;6.95;2.80;;;16.10;99.90;;;;;;5035494;28;20099;-66
2022/10/17 09:03:28;;;;;;;6.85;2.33;;;16.20;99.90;;;;;;5035046;28;20095;-67
2022/10/17 09:06:10;;;;;;;10.60;2.60;;;16.20;99.90;;;;;;5035077;28;20045;-68
2022/10/17 09:08:55;;;;;;;9.30;2.58;;;16.20;99.90;;;;;;5052238;28;20457;-66
2022/10/17 09:11:53;;;;;;;7.65;2.60;;;16.30;99.90;;;;;;5051444;28;20052;-65
2022/10/17 09:14:38;;;;;;;9.30;2.97;;;16.40;99.90;;;;;;5053424;28;20057;-63
2022/10/17 09:17:14;;;;;;;16.90;3.97;;;16.40;99.90;;;;;;5052598;28;20052;-63
2022/10/17 09:19:57;;;;;;;8.75;3.35;;;16.50;99.90;;;;;;5053544;28;20102;-63
2022/10/17 09:22:25;;;;;;;11.75;3.33;;;16.50;99.90;;;;;;5052071;28;20041;-64
2022/10/17 09:24:57;;;;;;;9.43;3.47;;;16.60;99.90;;;;;;5051146;28;20102;-63
2022/10/17 09:27:31;;;;;;;10.27;2.63;;;16.60;99.90;;;;;;5035091;28;20052;-64
2022/10/17 09:30:18;;;;;;;12.25;2.88;;;16.50;99.90;;;;;;5035038;28;20128;-64
2022/10/17 09:33:16;;;;;;;11.65;3.05;;;16.60;99.90;;;;;;5051793;28;20468;-63
2022/10/17 09:36:09;;;;;;;16.92;4.40;;;16.60;99.90;;;;;;5051812;28;20357;-63
2022/10/17 09:38:44;;;;;;;9.52;2.45;;;16.60;99.90;;;;;;5052197;28;20353;-62
2022/10/17 09:41:19;;;;;;;13.05;3.55;;;16.60;99.90;;;;;;5051386;28;20049;-62
2022/10/17 09:44:12;;;;;;;11.85;4.93;;;16.70;99.90;;;;;;5055202;28;20148;-64
2022/10/17 09:46:39;;;;;;;8.75;3.22;;;16.70;99.90;;;;;;5055977;28;20063;-64
2022/10/17 09:49:17;;;;;;;13.23;4.97;;;16.70;99.90;;;;;;5054638;28;20037;-63
2022/10/17 09:51:44;;;;;;;13.77;4.15;;;16.70;99.90;;;;;;5038458;28;20460;-63
2022/10/17 09:54:21;;;;;;;13.10;3.80;;;16.70;99.90;;;;;;5054659;28;20484;-64
2022/10/17 09:56:57;;;;;;;12.88;5.40;;;16.70;99.90;;;;;;5055572;28;20458;-64
2022/10/17 09:59:35;;;;;;;13.30;4.68;;;16.70;99.90;;;;;;5054871;28;20095;-64
2022/10/17 10:02:19;;;;;;;18.23;5.75;;;16.70;99.90;;;;;;5055841;28;20056;-63
2022/10/17 10:05:15;;;;;;;23.20;6.32;;;16.70;99.90;;;;;;5055686;28;20060;-64
2022/10/17 10:07:43;;;;;;;13.43;3.83;;;16.70;99.90;;;;;;5055735;28;20045;-64
2022/10/17 10:10:23;;;;;;;10.88;4.80;;;16.70;99.90;;;;;;5038402;28;20045;-64
2022/10/17 10:13:12;;;;;;;16.58;4.63;;;16.70;99.90;;;;;;5055095;28;20527;-65
2022/10/17 10:15:41;;;;;;;15.98;3.65;;;16.70;99.90;;;;;;5054657;28;20568;-65
2022/10/17 10:18:35;;;;;;;10.43;3.47;;;16.80;99.90;;;;;;5055996;28;20045;-65
2022/10/17 10:21:12;;;;;;;17.63;4.88;;;16.80;99.90;;;;;;5055592;28;20037;-66
2022/10/17 10:23:43;;;;;;;11.25;4.80;;;16.90;99.90;;;;;;5054563;28;20045;-65
2022/10/17 10:26:17;;;;;;;11.02;3.33;;;16.90;99.90;;;;;;5055112;28;20041;-65
2022/10/17 10:28:58;;;;;;;19.48;3.88;;;17.00;99.90;;;;;;5055449;28;20088;-64
2022/10/17 10:31:30;;;;;;;12.45;4.30;;;17.00;99.90;;;;;;5054314;28;20041;-68
2022/10/17 10:33:59;;;;;;;17.75;3.72;;;17.00;99.90;;;;;;5054205;28;20040;-65
2022/10/17 10:36:44;;;;;;;17.80;3.92;;;17.00;99.90;;;;;;5054889;28;20119;-66
2022/10/17 10:39:22;;;;;;;13.75;3.97;;;17.10;99.90;;;;;;5054880;28;20461;-68
2022/10/17 10:41:48;;;;;;;23.42;3.88;;;17.10;99.90;;;;;;5054254;28;20045;-65
2022/10/17 10:44:23;;;;;;;15.35;4.15;;;17.20;99.90;;;;;;5054368;28;20048;-64
2022/10/17 10:47:15;;;;;;;9.93;3.75;;;17.30;99.90;;;;;;5054203;28;20045;-65
2022/10/17 10:49:42;;;;;;;16.40;5.03;;;17.30;99.90;;;;;;5056113;28;20052;-65
2022/10/17 10:52:15;;;;;;;11.10;3.90;;;17.40;99.90;;;;;;5054196;28;20361;-65
2022/10/17 10:54:54;;;;;;;27.48;19.20;;;17.40;99.90;;;;;;5037497;28;20395;-64
2022/10/17 10:57:22;;;;;;;19.38;4.95;;;17.30;99.90;;;;;;5070539;28;20473;-64
2022/10/17 11:00:01;;;;;;;14.70;3.88;;;17.30;99.90;;;;;;5037684;28;20393;-64
2022/10/17 11:02:37;;;;;;;13.38;3.92;;;17.30;99.90;;;;;;5054781;28;20048;-65
2022/10/17 11:05:33;;;;;;;11.73;3.70;;;17.30;99.90;;;;;;5037379;28;20045;-64
2022/10/17 11:08:26;;;;;;;14.60;3.55;;;17.30;99.90;;;;;;5046565;28;20045;-65
2022/10/17 11:10:59;;;;;;;16.60;3.78;;;17.30;99.90;;;;;;5054003;28;20381;-64
2022/10/17 11:13:42;;;;;;;11.20;2.97;;;17.40;99.90;;;;;;5053098;28;20040;-65
2022/10/17 11:16:30;;;;;;;15.10;3.70;;;17.40;99.90;;;;;;5053857;28;20106;-64
2022/10/17 11:19:02;;;;;;;14.47;3.13;;;17.40;99.90;;;;;;5054157;28;20468;-64
2022/10/17 11:21:46;;;;;;;10.52;2.95;;;17.50;99.90;;;;;;5054287;28;20412;-64
2022/10/17 11:24:28;;;;;;;15.98;6.55;;;17.50;99.90;;;;;;5053116;28;20500;-64
2022/10/17 11:27:05;;;;;;;13.45;4.03;;;17.60;99.90;;;;;;5036386;28;20392;-63
2022/10/17 11:29:34;;;;;;;13.65;3.38;;;17.60;99.90;;;;;;5053620;28;20049;-63
2022/10/17 11:32:07;;;;;;;12.98;3.75;;;17.60;99.90;;;;;;5052633;28;20084;-63
2022/10/17 11:34:43;;;;;;;12.85;3.30;;;17.70;99.90;;;;;;5052663;28;20357;-63
2022/10/17 11:37:37;;;;;;;11.32;2.63;;;17.70;99.90;;;;;;5053316;28;20040;-64
2022/10/17 11:40:20;;;;;;;8.07;2.85;;;17.70;99.90;;;;;;5052937;28;20041;-63
2022/10/17 11:43:12;;;;;;;16.52;3.35;;;17.70;99.90;;;;;;5052702;28;20055;-63
2022/10/17 11:45:45;;;;;;;9.85;3.58;;;17.80;99.90;;;;;;5053967;28;20465;-64
2022/10/17 11:48:18;;;;;;;14.18;5.47;;;17.80;99.90;;;;;;5052631;28;20053;-65
2022/10/17 11:50:48;;;;;;;23.27;10.55;;;17.90;99.90;;;;;;5052400;28;20045;-65
2022/10/17 11:53:50;;;;;;;16.35;4.47;;;17.90;99.90;;;;;;5066275;28;20428;-63
2022/10/17 11:56:20;;;;;;;11.90;3.67;;;18.00;99.90;;;;;;5052430;28;20088;-64
2022/10/17 11:59:08;;;;;;;14.10;4.45;;;18.00;99.90;;;;;;5054052;28;20045;-64
2022/10/17 12:01:39;;;;;;;12.10;4.38;;;18.10;99.90;;;;;;5053447;28;20045;-65
2022/10/17 12:04:21;;;;;;;11.07;2.85;;;18.20;99.90;;;;;;5052990;28;20037;-64
2022/10/17 12:07:32;;;;;;;11.68;4.15;;;18.10;99.90;;;;;;5035471;28;20196;-65
2022/10/17 12:10:23;;;;;;;10.70;3.83;;;18.10;99.90;;;;;;5033601;28;20048;-64
2022/10/17 12:12:50;;;;;;;15.15;4.40;;;18.10;99.90;;;;;;5052326;28;20045;-65
2022/10/17 12:15:23;;;;;;;15.70;4.47;;;18.10;99.90;;;;;;5052005;28;20037;-64
2022/10/17 12:18:02;;;;;;;16.13;5.55;;;18.00;99.90;;;;;;5053852;28;20044;-62
2022/10/17 12:20:33;;;;;;;;;;;18.10;99.90;;;;;;5052463;28;20048;-63
2022/10/17 12:23:11;;;;;;;9.80;3.15;;;18.00;99.90;;;;;;5053625;28;19920;-64
2022/10/17 12:26:00;;;;;;;11.23;2.30;;;18.10;99.90;;;;;;5052113;28;20048;-65
2022/10/17 12:28:40;;;;;;;12.60;3.20;;;18.10;99.90;;;;;;5051858;28;20045;-64
2022/10/17 12:31:22;;;;;;;9.93;3.28;;;18.10;99.90;;;;;;5052393;28;20048;-68
2022/10/17 12:33:55;;;;;;;15.38;3.67;;;18.10;99.90;;;;;;5052422;28;20041;-61
2022/10/17 12:36:21;;;;;;;10.40;2.63;;;18.10;99.90;;;;;;5035221;28;20052;-64
2022/10/17 12:38:50;;;;;;;12.18;2.95;;;18.10;99.90;;;;;;5052886;28;20048;-64
2022/10/17 12:41:37;;;;;;;9.70;3.63;;;18.00;99.90;;;;;;5052181;28;20469;-64
2022/10/17 12:44:13;;;;;;;10.13;3.45;;;18.00;99.90;;;;;;5052682;28;20503;-64
2022/10/17 12:47:00;;;;;;;12.95;4.13;;;18.10;99.90;;;;;;5052813;28;20044;-65
2022/10/17 12:49:49;;;;;;;15.25;4.53;;;18.10;99.90;;;;;;5052874;28;20500;-64
2022/10/17 12:52:31;;;;;;;21.40;4.03;;;18.10;99.90;;;;;;5053195;28;20103;-63
2022/10/17 12:55:05;;;;;;;16.55;3.63;;;18.10;99.90;;;;;;5053365;28;20067;-64
2022/10/17 12:58:02;;;;;;;16.40;4.05;;;18.20;99.90;;;;;;5052677;28;20041;-65
2022/10/17 13:00:45;;;;;;;13.18;3.90;;;18.30;99.90;;;;;;5052393;28;20044;-64
2022/10/17 13:03:34;;;;;;;10.23;3.70;;;18.20;99.90;;;;;;5039544;28;20436;-63
2022/10/17 13:06:02;;;;;;;18.23;4.53;;;18.20;99.90;;;;;;5051771;28;20052;-64
2022/10/17 13:08:32;;;;;;;14.25;4.03;;;18.10;99.90;;;;;;5035221;28;20496;-64